createdAt,value
2019-04-29T00:01:27.425Z,7.27
2019-04-29T00:04:47.779Z,7.23
2019-04-29T00:08:04.656Z,7.29
2019-04-29T00:11:21.535Z,7.23
2019-04-29T00:14:39.813Z,7.19
2019-04-29T00:18:16.301Z,7.23
2019-04-29T00:21:24.305Z,7.19
2019-04-29T00:24:30.651Z,7.21
2019-04-29T00:27:38.012Z,7.19
2019-04-29T00:30:45.425Z,7.20
2019-04-29T00:34:02.239Z,7.20
2019-04-29T00:37:33.155Z,7.24
2019-04-29T00:41:02.612Z,7.18
2019-04-29T00:44:12.141Z,7.22
2019-04-29T00:47:17.809Z,7.24
2019-04-29T00:50:34.228Z,7.28
2019-04-29T00:53:52.829Z,7.32
2019-04-29T00:57:15.778Z,7.34
2019-04-29T01:00:37.431Z,7.36
2019-04-29T01:03:54.143Z,7.34
2019-04-29T01:07:11.021Z,7.36
2019-04-29T01:10:27.802Z,7.40
2019-04-29T01:13:44.675Z,7.42
2019-04-29T01:17:01.249Z,7.48
2019-04-29T01:20:08.632Z,7.48
2019-04-29T01:23:27.260Z,7.49
2019-04-29T01:26:50.117Z,7.45
2019-04-29T01:29:57.394Z,7.47
2019-04-29T01:33:04.864Z,7.47
2019-04-29T01:36:28.968Z,7.50
2019-04-29T01:39:42.333Z,7.50
2019-04-29T01:42:49.664Z,7.51
2019-04-29T01:45:57.094Z,7.54
2019-04-29T01:49:04.650Z,7.55
2019-04-29T01:52:12.270Z,7.56
2019-04-29T01:55:28.948Z,7.61
2019-04-29T01:58:36.311Z,7.56
2019-04-29T02:01:52.998Z,7.67
2019-04-29T02:05:09.761Z,7.68
2019-04-29T02:08:26.786Z,7.72
2019-04-29T02:11:34.331Z,7.66
2019-04-29T02:14:41.649Z,7.72
2019-04-29T02:17:48.932Z,7.67
2019-04-29T02:20:56.266Z,7.67
2019-04-29T02:24:11.164Z,7.61
2019-04-29T02:27:18.534Z,7.66
2019-04-29T02:30:42.378Z,7.63
2019-04-29T02:33:48.453Z,7.61
2019-04-29T02:37:06.676Z,7.68
2019-04-29T02:40:41.997Z,7.68
2019-04-29T02:43:51.049Z,7.65
2019-04-29T02:46:58.623Z,7.66
2019-04-29T02:50:06.469Z,7.71
2019-04-29T02:53:23.355Z,7.75
2019-04-29T02:56:30.180Z,7.70
2019-04-29T02:59:41.754Z,7.71
2019-04-29T03:03:01.533Z,7.76
2019-04-29T03:06:08.922Z,7.81
2019-04-29T03:09:16.229Z,7.79
2019-04-29T03:12:23.706Z,7.89
2019-04-29T03:15:33.689Z,7.88
2019-04-29T03:18:46.157Z,7.89
2019-04-29T03:21:56.073Z,8.01
2019-04-29T03:25:03.538Z,7.99
2019-04-29T03:28:10.910Z,8.03
2019-04-29T03:31:18.282Z,8.15
2019-04-29T03:34:25.771Z,8.22
2019-04-29T03:37:42.690Z,8.31
2019-04-29T03:41:01.261Z,8.31
2019-04-29T03:44:18.029Z,8.35
2019-04-29T03:47:34.880Z,8.37
2019-04-29T03:50:51.706Z,8.40
2019-04-29T03:54:10.806Z,8.46
2019-04-29T03:57:19.001Z,8.44
2019-04-29T04:00:43.888Z,8.51
2019-04-29T04:03:52.936Z,8.48
2019-04-29T04:07:18.187Z,8.50
2019-04-29T04:10:25.703Z,8.53
2019-04-29T04:13:33.120Z,8.53
2019-04-29T04:17:14.995Z,8.55
2019-04-29T04:20:22.983Z,8.54
2019-04-29T04:23:40.725Z,8.64
2019-04-29T04:26:48.205Z,8.61
2019-04-29T04:29:55.613Z,8.63
2019-04-29T04:33:01.298Z,8.66
2019-04-29T04:36:18.279Z,8.71
2019-04-29T04:39:36.780Z,8.73
2019-04-29T04:42:53.495Z,8.77
2019-04-29T04:46:10.235Z,8.77
2019-04-29T04:49:27.024Z,8.80
2019-04-29T04:52:32.682Z,8.78
2019-04-29T04:55:51.160Z,8.85
2019-04-29T04:59:07.831Z,8.86
2019-04-29T05:02:26.132Z,8.88
2019-04-29T05:05:33.828Z,8.86
2019-04-29T05:08:39.572Z,8.86
2019-04-29T05:11:46.879Z,8.90
2019-04-29T05:14:54.244Z,8.93
2019-04-29T05:18:01.602Z,8.94
2019-04-29T05:21:08.869Z,8.96
2019-04-29T05:24:16.252Z,8.98
2019-04-29T05:27:23.663Z,8.99
2019-04-29T05:30:31.382Z,9.02
2019-04-29T05:33:47.891Z,9.10
2019-04-29T05:37:22.625Z,9.12
2019-04-29T05:40:41.253Z,9.09
2019-04-29T05:43:54.747Z,9.11
2019-04-29T05:47:07.763Z,9.12
2019-04-29T05:50:57.530Z,9.18
2019-04-29T05:54:05.577Z,9.18
2019-04-29T05:57:25.237Z,9.23
2019-04-29T06:00:45.599Z,9.25
2019-04-29T06:03:52.998Z,9.21
2019-04-29T06:07:00.277Z,9.26
2019-04-29T06:10:07.907Z,9.27
2019-04-29T06:13:15.163Z,9.29
2019-04-29T06:16:22.869Z,9.30
2019-04-29T06:19:41.044Z,9.37
2019-04-29T06:22:57.844Z,9.40
2019-04-29T06:26:05.169Z,9.38
2019-04-29T06:29:21.902Z,9.43
2019-04-29T06:32:38.759Z,9.45
2019-04-29T06:35:57.154Z,9.47
2019-04-29T06:39:14.300Z,9.48
2019-04-29T06:42:33.470Z,9.51
2019-04-29T06:45:51.264Z,9.54
2019-04-29T06:49:11.326Z,9.54
2019-04-29T06:52:27.875Z,9.65
2019-04-29T06:55:44.714Z,9.65
2019-04-29T06:59:01.470Z,9.66
2019-04-29T07:02:18.227Z,9.65
2019-04-29T07:05:23.876Z,9.61
2019-04-29T07:08:40.800Z,9.66
2019-04-29T07:11:46.494Z,9.65
2019-04-29T07:14:53.954Z,9.69
2019-04-29T07:18:01.314Z,9.70
2019-04-29T07:21:11.859Z,9.72
2019-04-29T07:24:20.275Z,9.77
2019-04-29T07:27:26.728Z,9.80
2019-04-29T07:30:39.204Z,9.81
2019-04-29T07:33:42.981Z,9.84
2019-04-29T07:36:59.866Z,9.89
2019-04-29T07:40:17.729Z,9.94
2019-04-29T07:43:25.189Z,9.93
2019-04-29T07:46:55.668Z,9.96
2019-04-29T07:49:47.312Z,9.98
2019-04-29T07:52:55.973Z,9.97
2019-04-29T07:56:06.515Z,9.97
2019-04-29T07:59:12.618Z,10.01
2019-04-29T08:02:29.534Z,10.08
2019-04-29T08:05:53.102Z,10.10
2019-04-29T08:09:07.401Z,10.08
2019-04-29T08:12:20.878Z,10.13
2019-04-29T08:15:31.587Z,10.09
2019-04-29T08:18:49.501Z,10.16
2019-04-29T08:22:05.199Z,10.19
2019-04-29T08:25:26.038Z,10.25
2019-04-29T08:28:46.517Z,10.24
2019-04-29T08:32:03.221Z,10.27
2019-04-29T08:35:20.001Z,10.29
2019-04-29T08:38:39.826Z,10.30
2019-04-29T08:41:45.571Z,10.31
2019-04-29T08:45:22.972Z,10.31
2019-04-29T08:48:30.460Z,10.31
2019-04-29T08:51:37.852Z,10.33
2019-04-29T08:54:45.284Z,10.37
2019-04-29T08:57:52.670Z,10.40
2019-04-29T09:01:09.333Z,10.46
2019-04-29T09:04:28.570Z,10.44
2019-04-29T09:07:35.653Z,10.44
2019-04-29T09:10:43.030Z,10.51
2019-04-29T09:13:49.295Z,10.55
2019-04-29T09:17:19.848Z,10.63
2019-04-29T09:20:24.682Z,10.63
2019-04-29T09:23:41.512Z,10.67
2019-04-29T09:27:09.743Z,10.66
2019-04-29T09:30:26.514Z,10.64
2019-04-29T09:33:44.285Z,10.65
2019-04-29T09:37:01.679Z,10.72
2019-04-29T09:40:20.927Z,10.75
2019-04-29T09:43:43.488Z,10.71
2019-04-29T09:46:49.326Z,10.76
2019-04-29T09:49:56.847Z,10.83
2019-04-29T09:53:04.242Z,10.85
2019-04-29T09:56:11.661Z,10.90
2019-04-29T09:59:24.443Z,10.98
2019-04-29T10:02:38.069Z,11.06
2019-04-29T10:05:56.340Z,11.15
2019-04-29T10:09:20.375Z,11.28
2019-04-29T10:12:43.097Z,11.29
2019-04-29T10:16:18.376Z,11.33
2019-04-29T10:19:43.123Z,11.32
2019-04-29T10:22:53.703Z,11.38
2019-04-29T10:26:09.497Z,11.55
2019-04-29T10:29:28.024Z,11.62
2019-04-29T10:32:45.812Z,11.72
2019-04-29T10:36:02.618Z,11.97
2019-04-29T10:39:42.430Z,12.01
2019-04-29T10:43:20.064Z,12.09
2019-04-29T10:46:50.405Z,12.21
2019-04-29T10:50:01.144Z,12.33
2019-04-29T10:53:28.773Z,12.49
2019-04-29T10:56:35.347Z,12.63
2019-04-29T10:59:46.193Z,12.71
2019-04-29T11:03:11.248Z,12.80
2019-04-29T11:06:31.390Z,12.86
2019-04-29T11:10:00.509Z,12.94
2019-04-29T11:14:01.477Z,13.11
2019-04-29T11:17:16.107Z,13.09
2019-04-29T11:20:21.147Z,13.15
2019-04-29T11:23:42.703Z,13.27
2019-04-29T11:27:14.769Z,13.37
2019-04-29T11:30:24.818Z,13.34
2019-04-29T11:33:40.096Z,13.47
2019-04-29T11:36:47.887Z,13.48
2019-04-29T11:39:57.050Z,13.54
2019-04-29T11:43:17.288Z,13.70
2019-04-29T11:46:24.713Z,13.74
2019-04-29T11:49:40.884Z,13.81
2019-04-29T11:53:07.820Z,14.03
2019-04-29T11:56:14.206Z,14.06
2019-04-29T11:59:49.347Z,14.17
2019-04-29T12:03:18.995Z,14.38
2019-04-29T12:06:25.415Z,14.34
2019-04-29T12:09:33.070Z,14.36
2019-04-29T12:12:39.430Z,14.46
2019-04-29T12:15:57.316Z,14.56
2019-04-29T12:19:16.994Z,14.61
2019-04-29T12:22:30.097Z,14.63
2019-04-29T12:25:42.477Z,14.73
2019-04-29T12:28:49.281Z,14.70
2019-04-29T12:32:20.601Z,14.75
2019-04-29T12:35:35.229Z,14.78
2019-04-29T12:39:06.854Z,14.79
2019-04-29T12:42:39.825Z,14.80
2019-04-29T12:45:55.627Z,14.82
2019-04-29T12:49:03.633Z,14.81
2019-04-29T12:52:10.696Z,14.92
2019-04-29T12:55:42.987Z,14.89
2019-04-29T12:58:31.701Z,14.91
2019-04-29T13:02:14.169Z,14.96
2019-04-29T13:05:40.554Z,14.98
2019-04-29T13:08:51.077Z,15.02
2019-04-29T13:12:17.822Z,15.09
2019-04-29T13:15:35.762Z,15.23
2019-04-29T13:19:11.397Z,15.22
2019-04-29T13:22:10.645Z,15.29
2019-04-29T13:25:28.244Z,15.39
2019-04-29T13:28:34.782Z,15.42
2019-04-29T13:31:43.105Z,15.46
2019-04-29T13:34:51.978Z,15.48
2019-04-29T13:37:58.646Z,15.55
2019-04-29T13:41:23.684Z,15.63
2019-04-29T13:44:41.313Z,15.71
2019-04-29T13:47:54.267Z,15.70
2019-04-29T13:51:07.676Z,15.78
2019-04-29T13:54:31.818Z,15.88
2019-04-29T13:57:49.582Z,15.87
2019-04-29T14:01:23.700Z,15.82
2019-04-29T14:04:29.371Z,15.82
2019-04-29T14:07:39.383Z,15.86
2019-04-29T14:10:46.832Z,15.86
2019-04-29T14:14:04.518Z,15.94
2019-04-29T14:18:53.657Z,15.93
2019-04-29T14:20:39.809Z,15.94
2019-04-29T14:23:56.725Z,15.95
2019-04-29T14:27:24.632Z,15.96
2019-04-29T14:30:38.958Z,15.97
2019-04-29T14:34:00.338Z,15.97
2019-04-29T14:37:21.336Z,15.94
2019-04-29T14:40:15.446Z,15.89
2019-04-29T14:43:57.428Z,15.89
2019-04-29T14:47:36.272Z,15.92
2019-04-29T14:50:44.912Z,15.87
2019-04-29T14:53:56.636Z,15.83
2019-04-29T14:57:01.788Z,15.80
2019-04-29T15:00:14.830Z,15.81
2019-04-29T15:03:23.487Z,15.83
2019-04-29T15:06:30.934Z,15.76
2019-04-29T15:09:55.946Z,15.73
2019-04-29T15:13:20.744Z,15.70
2019-04-29T15:16:34.941Z,15.64
2019-04-29T15:20:16.620Z,15.67
2019-04-29T15:23:28.788Z,15.63
2019-04-29T15:26:31.493Z,15.64
2019-04-29T15:29:48.250Z,15.69
2019-04-29T15:33:06.364Z,15.69
2019-04-29T15:36:13.794Z,15.56
2019-04-29T15:39:31.078Z,15.54
2019-04-29T15:42:42.767Z,15.49
2019-04-29T15:45:48.008Z,15.45
2019-04-29T15:48:55.385Z,15.44
2019-04-29T15:52:02.982Z,15.43
2019-04-29T15:55:24.564Z,15.42
2019-04-29T15:58:41.317Z,15.38
2019-04-29T16:01:48.323Z,15.33
2019-04-29T16:05:04.760Z,15.28
2019-04-29T16:08:22.896Z,15.24
2019-04-29T16:11:54.913Z,15.21
2019-04-29T16:15:25.493Z,15.16
2019-04-29T16:18:42.297Z,15.10
2019-04-29T16:21:49.390Z,15.04
2019-04-29T16:24:59.415Z,14.99
2019-04-29T16:28:05.522Z,14.95
2019-04-29T16:31:22.502Z,14.92
2019-04-29T16:34:44.660Z,14.84
2019-04-29T16:37:57.543Z,14.64
2019-04-29T16:41:32.301Z,14.65
2019-04-29T16:44:39.871Z,14.61
2019-04-29T16:47:48.648Z,14.52
2019-04-29T16:50:56.303Z,14.42
2019-04-29T16:54:03.842Z,14.22
2019-04-29T16:57:11.326Z,14.24
2019-04-29T17:00:31.503Z,14.15
2019-04-29T17:03:39.074Z,14.15
2019-04-29T17:07:10.732Z,14.00
2019-04-29T17:10:20.209Z,13.78
2019-04-29T17:13:44.686Z,13.74
2019-04-29T17:17:01.596Z,13.58
2019-04-29T17:20:22.266Z,13.54
2019-04-29T17:23:29.723Z,13.55
2019-04-29T17:26:44.357Z,13.56
2019-04-29T17:30:12.193Z,13.60
2019-04-29T17:33:40.026Z,13.57
2019-04-29T17:36:46.973Z,13.55
2019-04-29T17:39:54.647Z,13.54
2019-04-29T17:43:43.123Z,13.53
2019-04-29T17:47:15.223Z,13.41
2019-04-29T17:50:30.564Z,13.33
2019-04-29T17:53:46.003Z,13.17
2019-04-29T17:57:24.839Z,13.11
2019-04-29T18:00:59.584Z,13.05
2019-04-29T18:04:22.985Z,12.99
2019-04-29T18:07:58.351Z,12.82
2019-04-29T18:11:08.163Z,12.74
2019-04-29T18:14:25.273Z,12.64
2019-04-29T18:17:43.263Z,12.57
2019-04-29T18:21:07.160Z,12.39
2019-04-29T18:24:25.268Z,12.31
2019-04-29T18:27:36.356Z,12.18
2019-04-29T18:30:45.022Z,12.15
2019-04-29T18:33:52.769Z,12.05
2019-04-29T18:37:11.864Z,12.03
2019-04-29T18:40:30.244Z,11.94
2019-04-29T18:43:47.216Z,11.90
2019-04-29T18:46:57.109Z,11.78
2019-04-29T18:50:02.947Z,11.70
2019-04-29T18:53:10.427Z,11.69
2019-04-29T18:56:32.225Z,11.62
2019-04-29T18:59:42.142Z,11.51
2019-04-29T19:02:56.933Z,11.47
2019-04-29T19:05:58.578Z,11.38
2019-04-29T19:09:17.479Z,11.33
2019-04-29T19:12:15.472Z,11.23
2019-04-29T19:15:22.962Z,11.12
2019-04-29T19:18:28.639Z,11.04
2019-04-29T19:21:45.551Z,11.01
2019-04-29T19:25:08.686Z,10.92
2019-04-29T19:28:29.446Z,10.82
2019-04-29T19:31:46.810Z,10.70
2019-04-29T19:34:59.041Z,10.60
2019-04-29T19:38:16.084Z,10.47
2019-04-29T19:41:38.885Z,10.40
2019-04-29T19:44:55.538Z,10.34
2019-04-29T19:48:02.969Z,10.18
2019-04-29T19:51:22.948Z,10.12
2019-04-29T19:54:38.003Z,10.05
2019-04-29T19:57:56.200Z,9.94
2019-04-29T20:01:11.573Z,9.81
2019-04-29T20:04:22.965Z,9.73
2019-04-29T20:07:31.526Z,9.64
2019-04-29T20:10:45.947Z,9.54
2019-04-29T20:14:04.803Z,9.49
2019-04-29T20:17:54.418Z,9.38
2019-04-29T20:21:28.943Z,9.23
2019-04-29T20:24:17.921Z,9.14
2019-04-29T20:27:26.054Z,9.06
2019-04-29T20:30:34.486Z,8.97
2019-04-29T20:33:51.545Z,8.93
2019-04-29T20:37:10.717Z,8.86
2019-04-29T20:40:16.440Z,8.78
2019-04-29T20:43:25.973Z,8.66
2019-04-29T20:46:51.691Z,8.62
2019-04-29T20:49:52.103Z,8.52
2019-04-29T20:53:08.587Z,8.44
2019-04-29T20:56:23.638Z,8.36
2019-04-29T20:59:25.996Z,8.30
2019-04-29T21:02:35.343Z,8.22
2019-04-29T21:05:48.115Z,8.18
2019-04-29T21:08:52.309Z,8.09
2019-04-29T21:12:29.747Z,8.11
2019-04-29T21:15:55.581Z,8.00
2019-04-29T21:19:08.780Z,7.90
2019-04-29T21:22:26.026Z,7.89
2019-04-29T21:25:35.439Z,7.80
2019-04-29T21:28:45.321Z,7.73
2019-04-29T21:32:01.831Z,7.72
2019-04-29T21:35:18.719Z,7.59
2019-04-29T21:38:55.845Z,7.53
2019-04-29T21:42:36.974Z,7.43
2019-04-29T21:45:44.958Z,7.35
2019-04-29T21:48:52.505Z,7.33
2019-04-29T21:52:09.225Z,7.29
2019-04-29T21:55:16.164Z,7.21
2019-04-29T21:58:23.775Z,7.13
2019-04-29T22:01:40.562Z,7.11
2019-04-29T22:04:57.558Z,7.02
2019-04-29T22:08:16.230Z,7.00
2019-04-29T22:11:23.032Z,6.90
2019-04-29T22:14:30.258Z,6.90
2019-04-29T22:17:37.809Z,6.83
2019-04-29T22:20:54.740Z,6.82
2019-04-29T22:24:11.369Z,6.79
2019-04-29T22:27:28.299Z,6.69
2019-04-29T22:30:45.344Z,6.68
2019-04-29T22:33:53.001Z,6.58
2019-04-29T22:37:01.282Z,6.52
2019-04-29T22:40:18.022Z,6.51
2019-04-29T22:43:47.322Z,6.43
2019-04-29T22:46:55.521Z,6.39
2019-04-29T22:50:04.429Z,6.33
2019-04-29T22:53:12.260Z,6.28
2019-04-29T22:56:19.512Z,6.23
2019-04-29T22:59:36.318Z,6.25
2019-04-29T23:02:53.158Z,6.17
2019-04-29T23:06:09.970Z,6.13
2019-04-29T23:09:30.446Z,6.08
2019-04-29T23:12:53.971Z,6.03
2019-04-29T23:16:08.004Z,5.98
2019-04-29T23:19:25.951Z,5.96
2019-04-29T23:22:48.341Z,5.84
2019-04-29T23:25:59.971Z,5.83
2019-04-29T23:29:07.351Z,5.76
2019-04-29T23:32:15.336Z,5.74
2019-04-29T23:35:25.019Z,5.73
2019-04-29T23:38:42.791Z,5.69
2019-04-29T23:41:48.830Z,5.60
2019-04-29T23:45:05.932Z,5.59
2019-04-29T23:48:13.352Z,5.49
2019-04-29T23:51:21.224Z,5.49
2019-04-29T23:54:48.286Z,5.46
2019-04-29T23:58:20.253Z,5.43
